sensor_id;sensor_type;location;lat;lon;timestamp;pressure;altitude;pressure_sealevel;temperature;humidity
43621;BME280;29213;50.770;7.298;2023-12-04T00:01:34;100883.44;;;-1.52;55.40
43621;BME280;29213;50.770;7.298;2023-12-04T00:04:01;100881.22;;;-1.60;55.08
43621;BME280;29213;50.770;7.298;2023-12-04T00:19:54;100821.84;;;-2.09;56.35
43621;BME280;29213;50.770;7.298;2023-12-04T00:22:19;100839.81;;;-2.03;55.91
43621;BME280;29213;50.770;7.298;2023-12-04T00:24:45;100824.03;;;-2.19;55.96
43621;BME280;29213;50.770;7.298;2023-12-04T00:27:10;100837.28;;;-1.87;56.14
43621;BME280;29213;50.770;7.298;2023-12-04T00:29:35;100820.75;;;-2.05;56.40
43621;BME280;29213;50.770;7.298;2023-12-04T00:32:01;100819.25;;;-2.09;55.78
43621;BME280;29213;50.770;7.298;2023-12-04T00:34:26;100840.38;;;-1.78;56.11
43621;BME280;29213;50.770;7.298;2023-12-04T00:36:52;100824.59;;;-1.77;55.93
43621;BME280;29213;50.770;7.298;2023-12-04T00:39:17;100827.22;;;-1.77;55.49
43621;BME280;29213;50.770;7.298;2023-12-04T00:41:42;100766.72;;;-2.20;56.17
43621;BME280;29213;50.770;7.298;2023-12-04T00:44:08;100775.00;;;-1.94;55.76
43621;BME280;29213;50.770;7.298;2023-12-04T00:46:33;100793.44;;;-1.80;55.30
43621;BME280;29213;50.770;7.298;2023-12-04T00:48:59;100721.06;;;-2.11;55.25
43621;BME280;29213;50.770;7.298;2023-12-04T00:51:24;100816.84;;;-1.61;54.92
43621;BME280;29213;50.770;7.298;2023-12-04T00:53:50;100776.41;;;-1.87;55.25
43621;BME280;29213;50.770;7.298;2023-12-04T00:56:16;100778.09;;;-1.86;54.73
43621;BME280;29213;50.770;7.298;2023-12-04T00:58:41;100782.22;;;-1.82;54.91
43621;BME280;29213;50.770;7.298;2023-12-04T01:01:07;100803.09;;;-1.64;54.68
43621;BME280;29213;50.770;7.298;2023-12-04T01:03:32;100806.69;;;-1.49;54.43
43621;BME280;29213;50.770;7.298;2023-12-04T01:05:59;100761.94;;;-1.77;54.70
43621;BME280;29213;50.770;7.298;2023-12-04T01:08:24;100808.69;;;-1.54;54.58
43621;BME280;29213;50.770;7.298;2023-12-04T01:10:50;100759.75;;;-1.84;55.15
43621;BME280;29213;50.770;7.298;2023-12-04T01:13:15;100774.09;;;-1.76;54.79
43621;BME280;29213;50.770;7.298;2023-12-04T01:15:41;100753.38;;;-1.96;54.48
43621;BME280;29213;50.770;7.298;2023-12-04T01:18:07;100758.19;;;-1.89;54.58
43621;BME280;29213;50.770;7.298;2023-12-04T01:20:34;100776.78;;;-1.77;54.68
43621;BME280;29213;50.770;7.298;2023-12-04T01:22:59;100793.13;;;-1.74;54.56
43621;BME280;29213;50.770;7.298;2023-12-04T01:25:25;100754.88;;;-2.10;54.89
43621;BME280;29213;50.770;7.298;2023-12-04T01:27:50;100732.72;;;-2.19;55.14
43621;BME280;29213;50.770;7.298;2023-12-04T01:30:16;100760.41;;;-2.16;55.22
43621;BME280;29213;50.770;7.298;2023-12-04T01:32:41;100756.97;;;-2.34;55.80
43621;BME280;29213;50.770;7.298;2023-12-04T01:35:07;100716.50;;;-2.61;55.99
43621;BME280;29213;50.770;7.298;2023-12-04T01:37:32;100763.41;;;-2.42;55.94
43621;BME280;29213;50.770;7.298;2023-12-04T01:39:58;100710.47;;;-2.61;55.86
43621;BME280;29213;50.770;7.298;2023-12-04T01:42:23;100765.44;;;-2.29;56.04
43621;BME280;29213;50.770;7.298;2023-12-04T01:44:49;100779.06;;;-2.24;56.05
43621;BME280;29213;50.770;7.298;2023-12-04T01:47:14;100720.72;;;-2.58;56.39
43621;BME280;29213;50.770;7.298;2023-12-04T01:49:40;100777.94;;;-2.18;56.12
43621;BME280;29213;50.770;7.298;2023-12-04T01:52:06;100719.06;;;-2.42;56.29
43621;BME280;29213;50.770;7.298;2023-12-04T01:54:32;100756.56;;;-2.27;55.95
43621;BME280;29213;50.770;7.298;2023-12-04T01:56:57;100735.38;;;-2.38;56.02
43621;BME280;29213;50.770;7.298;2023-12-04T01:59:25;100726.03;;;-2.42;55.79
43621;BME280;29213;50.770;7.298;2023-12-04T02:01:52;100756.91;;;-2.15;55.84
43621;BME280;29213;50.770;7.298;2023-12-04T02:04:18;100737.31;;;-2.24;56.03
43621;BME280;29213;50.770;7.298;2023-12-04T02:06:43;100708.72;;;-2.43;55.96
43621;BME280;29213;50.770;7.298;2023-12-04T02:09:09;100704.56;;;-2.47;56.16
43621;BME280;29213;50.770;7.298;2023-12-04T02:11:38;100747.38;;;-2.16;56.51
43621;BME280;29213;50.770;7.298;2023-12-04T02:14:05;100718.44;;;-2.47;56.18
43621;BME280;29213;50.770;7.298;2023-12-04T02:16:32;100684.06;;;-2.73;56.20
43621;BME280;29213;50.770;7.298;2023-12-04T02:19:00;100726.81;;;-2.40;56.04
43621;BME280;29213;50.770;7.298;2023-12-04T02:21:26;100710.69;;;-2.31;56.17
43621;BME280;29213;50.770;7.298;2023-12-04T02:23:54;100681.69;;;-2.42;55.89
43621;BME280;29213;50.770;7.298;2023-12-04T02:26:24;100682.78;;;-2.46;55.29
43621;BME280;29213;50.770;7.298;2023-12-04T02:28:55;100701.47;;;-2.38;55.33
43621;BME280;29213;50.770;7.298;2023-12-04T02:31:24;100699.59;;;-2.34;55.54
43621;BME280;29213;50.770;7.298;2023-12-04T02:33:52;100724.81;;;-2.35;55.77
43621;BME280;29213;50.770;7.298;2023-12-04T02:36:19;100690.78;;;-2.69;56.00
43621;BME280;29213;50.770;7.298;2023-12-04T02:38:46;100702.38;;;-2.74;55.91
43621;BME280;29213;50.770;7.298;2023-12-04T02:41:11;100706.22;;;-2.64;56.47
43621;BME280;29213;50.770;7.298;2023-12-04T02:43:37;100669.38;;;-2.93;56.90
43621;BME280;29213;50.770;7.298;2023-12-04T02:46:02;100659.78;;;-2.92;56.70
43621;BME280;29213;50.770;7.298;2023-12-04T02:48:28;100656.00;;;-2.85;56.78
43621;BME280;29213;50.770;7.298;2023-12-04T02:50:53;100654.84;;;-2.80;56.35
43621;BME280;29213;50.770;7.298;2023-12-04T02:53:19;100654.06;;;-2.82;56.54
43621;BME280;29213;50.770;7.298;2023-12-04T02:55:44;100676.44;;;-2.77;56.35
43621;BME280;29213;50.770;7.298;2023-12-04T02:58:09;100678.06;;;-2.75;57.04
43621;BME280;29213;50.770;7.298;2023-12-04T03:00:35;100651.41;;;-2.99;57.31
43621;BME280;29213;50.770;7.298;2023-12-04T03:03:00;100620.22;;;-3.18;57.62
43621;BME280;29213;50.770;7.298;2023-12-04T03:05:25;100658.72;;;-2.88;57.48
43621;BME280;29213;50.770;7.298;2023-12-04T03:07:51;100648.75;;;-2.98;57.26
43621;BME280;29213;50.770;7.298;2023-12-04T03:10:16;100624.81;;;-3.06;57.71
43621;BME280;29213;50.770;7.298;2023-12-04T03:12:42;100618.00;;;-3.09;57.96
43621;BME280;29213;50.770;7.298;2023-12-04T03:15:07;100616.13;;;-3.24;57.52
43621;BME280;29213;50.770;7.298;2023-12-04T03:17:33;100665.22;;;-2.97;58.37
43621;BME280;29213;50.770;7.298;2023-12-04T03:19:58;100629.19;;;-3.07;58.23
43621;BME280;29213;50.770;7.298;2023-12-04T03:22:24;100607.72;;;-3.12;57.79
43621;BME280;29213;50.770;7.298;2023-12-04T03:24:49;100591.31;;;-3.14;57.90
43621;BME280;29213;50.770;7.298;2023-12-04T03:27:14;100613.00;;;-3.13;57.76
43621;BME280;29213;50.770;7.298;2023-12-04T03:29:40;100580.19;;;-3.35;58.04
43621;BME280;29213;50.770;7.298;2023-12-04T03:32:05;100604.66;;;-3.20;58.41
43621;BME280;29213;50.770;7.298;2023-12-04T03:34:31;100582.00;;;-3.37;58.46
43621;BME280;29213;50.770;7.298;2023-12-04T03:36:56;100598.44;;;-3.17;58.27
43621;BME280;29213;50.770;7.298;2023-12-04T03:39:22;100587.56;;;-3.45;58.58
43621;BME280;29213;50.770;7.298;2023-12-04T03:41:47;100566.09;;;-3.50;58.60
43621;BME280;29213;50.770;7.298;2023-12-04T03:44:13;100616.84;;;-3.40;58.69
43621;BME280;29213;50.770;7.298;2023-12-04T03:46:38;100608.44;;;-3.27;58.82
43621;BME280;29213;50.770;7.298;2023-12-04T03:49:05;100644.22;;;-2.94;58.56
43621;BME280;29213;50.770;7.298;2023-12-04T03:51:30;100595.06;;;-3.20;58.26
43621;BME280;29213;50.770;7.298;2023-12-04T03:53:56;100587.03;;;-3.15;57.86
43621;BME280;29213;50.770;7.298;2023-12-04T03:56:21;100580.34;;;-3.21;57.75
43621;BME280;29213;50.770;7.298;2023-12-04T03:58:46;100594.91;;;-3.16;57.71
43621;BME280;29213;50.770;7.298;2023-12-04T04:01:12;100570.66;;;-3.36;57.88
43621;BME280;29213;50.770;7.298;2023-12-04T04:03:37;100596.84;;;-3.20;58.00
43621;BME280;29213;50.770;7.298;2023-12-04T04:06:03;100609.28;;;-3.27;58.47
43621;BME280;29213;50.770;7.298;2023-12-04T04:08:29;100599.88;;;-3.29;58.50
43621;BME280;29213;50.770;7.298;2023-12-04T04:10:54;100621.38;;;-3.07;58.48
43621;BME280;29213;50.770;7.298;2023-12-04T04:13:20;100622.00;;;-3.01;58.29
43621;BME280;29213;50.770;7.298;2023-12-04T04:15:45;100567.47;;;-3.24;58.04
43621;BME280;29213;50.770;7.298;2023-12-04T04:18:11;100620.63;;;-2.91;58.15
43621;BME280;29213;50.770;7.298;2023-12-04T04:20:36;100521.63;;;-3.45;58.27
43621;BME280;29213;50.770;7.298;2023-12-04T04:23:02;100603.06;;;-2.87;57.86
43621;BME280;29213;50.770;7.298;2023-12-04T04:25:27;100605.78;;;-2.71;57.91
43621;BME280;29213;50.770;7.298;2023-12-04T04:27:52;100624.09;;;-2.73;57.48
43621;BME280;29213;50.770;7.298;2023-12-04T04:30:18;100577.84;;;-3.04;58.15
43621;BME280;29213;50.770;7.298;2023-12-04T04:32:43;100563.88;;;-3.21;58.51
43621;BME280;29213;50.770;7.298;2023-12-04T04:35:09;100492.75;;;-3.58;58.47
43621;BME280;29213;50.770;7.298;2023-12-04T04:37:34;100610.81;;;-2.86;58.05
43621;BME280;29213;50.770;7.298;2023-12-04T04:40:01;100606.72;;;-2.91;58.44
43621;BME280;29213;50.770;7.298;2023-12-04T04:42:26;100551.19;;;-3.10;58.09
43621;BME280;29213;50.770;7.298;2023-12-04T04:44:51;100582.13;;;-2.86;58.10
43621;BME280;29213;50.770;7.298;2023-12-04T04:47:17;100596.25;;;-2.72;58.18
43621;BME280;29213;50.770;7.298;2023-12-04T04:49:42;100574.69;;;-2.76;58.23
43621;BME280;29213;50.770;7.298;2023-12-04T04:52:07;100581.81;;;-2.62;57.85
43621;BME280;29213;50.770;7.298;2023-12-04T04:54:33;100537.22;;;-2.91;57.61
43621;BME280;29213;50.770;7.298;2023-12-04T04:56:58;100588.13;;;-2.48;57.26
43621;BME280;29213;50.770;7.298;2023-12-04T04:59:24;100573.94;;;-2.60;57.73
43621;BME280;29213;50.770;7.298;2023-12-04T05:01:49;100524.31;;;-2.94;57.29
43621;BME280;29213;50.770;7.298;2023-12-04T05:04:14;100565.09;;;-2.58;57.11
43621;BME280;29213;50.770;7.298;2023-12-04T05:06:40;100537.81;;;-2.68;57.18
43621;BME280;29213;50.770;7.298;2023-12-04T05:09:05;100555.38;;;-2.72;57.33
43621;BME280;29213;50.770;7.298;2023-12-04T05:11:31;100580.34;;;-2.50;57.12
43621;BME280;29213;50.770;7.298;2023-12-04T05:13:56;100572.94;;;-2.58;57.88
43621;BME280;29213;50.770;7.298;2023-12-04T05:16:22;100535.97;;;-2.84;57.69
43621;BME280;29213;50.770;7.298;2023-12-04T05:18:47;100559.97;;;-2.77;57.83
43621;BME280;29213;50.770;7.298;2023-12-04T05:21:12;100536.84;;;-2.83;57.68
43621;BME280;29213;50.770;7.298;2023-12-04T05:23:38;100534.44;;;-2.70;57.51
43621;BME280;29213;50.770;7.298;2023-12-04T05:26:04;100574.66;;;-2.41;57.66
43621;BME280;29213;50.770;7.298;2023-12-04T05:28:30;100526.00;;;-2.75;57.18
43621;BME280;29213;50.770;7.298;2023-12-04T05:30:55;100584.53;;;-2.30;56.95
43621;BME280;29213;50.770;7.298;2023-12-04T05:33:21;100518.56;;;-2.65;56.58
43621;BME280;29213;50.770;7.298;2023-12-04T05:35:47;100593.50;;;-2.18;56.98
43621;BME280;29213;50.770;7.298;2023-12-04T05:38:13;100584.28;;;-2.25;56.96
43621;BME280;29213;50.770;7.298;2023-12-04T05:40:39;100527.28;;;-2.49;56.48
43621;BME280;29213;50.770;7.298;2023-12-04T05:43:04;100530.22;;;-2.39;56.22
43621;BME280;29213;50.770;7.298;2023-12-04T05:45:30;100559.94;;;-2.08;56.16
43621;BME280;29213;50.770;7.298;2023-12-04T05:47:55;100516.38;;;-2.23;55.92
43621;BME280;29213;50.770;7.298;2023-12-04T05:50:21;100517.97;;;-2.21;55.25
43621;BME280;29213;50.770;7.298;2023-12-04T05:52:46;100518.38;;;-2.29;55.99
43621;BME280;29213;50.770;7.298;2023-12-04T05:55:11;100530.28;;;-2.23;56.05
43621;BME280;29213;50.770;7.298;2023-12-04T05:57:40;100525.41;;;-2.13;55.89
43621;BME280;29213;50.770;7.298;2023-12-04T06:00:06;100538.13;;;-2.07;55.49
43621;BME280;29213;50.770;7.298;2023-12-04T06:02:38;100502.47;;;-2.40;55.77
43621;BME280;29213;50.770;7.298;2023-12-04T06:05:05;100547.28;;;-2.16;56.25
43621;BME280;29213;50.770;7.298;2023-12-04T06:07:30;100552.06;;;-2.24;56.27
43621;BME280;29213;50.770;7.298;2023-12-04T06:09:56;100521.78;;;-2.44;55.82
43621;BME280;29213;50.770;7.298;2023-12-04T06:12:21;100493.84;;;-2.58;55.66
43621;BME280;29213;50.770;7.298;2023-12-04T06:14:46;100520.38;;;-2.50;55.99
43621;BME280;29213;50.770;7.298;2023-12-04T06:17:12;100519.72;;;-2.37;56.14
43621;BME280;29213;50.770;7.298;2023-12-04T06:19:37;100517.72;;;-2.32;55.84
43621;BME280;29213;50.770;7.298;2023-12-04T06:22:03;100509.25;;;-2.54;55.89
43621;BME280;29213;50.770;7.298;2023-12-04T06:24:30;100520.69;;;-2.56;56.39
43621;BME280;29213;50.770;7.298;2023-12-04T06:26:55;100456.97;;;-3.20;56.55
43621;BME280;29213;50.770;7.298;2023-12-04T06:29:21;100514.38;;;-3.03;57.12
43621;BME280;29213;50.770;7.298;2023-12-04T06:31:47;100462.34;;;-3.40;56.93
43621;BME280;29213;50.770;7.298;2023-12-04T06:34:12;100523.94;;;-2.86;57.28
43621;BME280;29213;50.770;7.298;2023-12-04T06:36:38;100505.78;;;-2.88;56.82
43621;BME280;29213;50.770;7.298;2023-12-04T06:39:16;100462.91;;;-3.16;57.40
43621;BME280;29213;50.770;7.298;2023-12-04T06:41:42;100508.41;;;-2.88;57.37
43621;BME280;29213;50.770;7.298;2023-12-04T06:44:08;100488.47;;;-3.07;57.19
43621;BME280;29213;50.770;7.298;2023-12-04T06:46:37;100459.88;;;-3.08;57.17
43621;BME280;29213;50.770;7.298;2023-12-04T06:49:04;100499.63;;;-2.69;56.92
43621;BME280;29213;50.770;7.298;2023-12-04T06:51:30;100453.56;;;-2.86;56.94
43621;BME280;29213;50.770;7.298;2023-12-04T06:53:55;100468.19;;;-2.84;56.71
43621;BME280;29213;50.770;7.298;2023-12-04T06:56:21;100388.16;;;-3.15;56.29
43621;BME280;29213;50.770;7.298;2023-12-04T06:58:46;100449.19;;;-2.86;56.39
43621;BME280;29213;50.770;7.298;2023-12-04T07:01:12;100390.56;;;-3.28;56.55
43621;BME280;29213;50.770;7.298;2023-12-04T07:03:37;100416.38;;;-3.06;56.43
43621;BME280;29213;50.770;7.298;2023-12-04T07:06:03;100448.00;;;-2.96;55.97
43621;BME280;29213;50.770;7.298;2023-12-04T07:08:29;100437.97;;;-3.04;56.48
43621;BME280;29213;50.770;7.298;2023-12-04T07:10:54;100434.75;;;-3.09;56.84
43621;BME280;29213;50.770;7.298;2023-12-04T07:13:19;100394.75;;;-3.26;56.99
43621;BME280;29213;50.770;7.298;2023-12-04T07:15:45;100366.09;;;-3.59;56.71
43621;BME280;29213;50.770;7.298;2023-12-04T07:18:11;100425.34;;;-3.29;56.93
43621;BME280;29213;50.770;7.298;2023-12-04T07:20:36;100396.47;;;-3.42;57.25
43621;BME280;29213;50.770;7.298;2023-12-04T07:23:01;100425.72;;;-3.37;57.40
43621;BME280;29213;50.770;7.298;2023-12-04T07:25:27;100389.66;;;-3.63;57.61
43621;BME280;29213;50.770;7.298;2023-12-04T07:27:52;100431.22;;;-3.26;57.46
43621;BME280;29213;50.770;7.298;2023-12-04T07:30:18;100404.97;;;-3.56;57.20
43621;BME280;29213;50.770;7.298;2023-12-04T07:32:43;100382.78;;;-3.81;58.27
43621;BME280;29213;50.770;7.298;2023-12-04T07:35:08;100390.59;;;-3.64;57.40
43621;BME280;29213;50.770;7.298;2023-12-04T07:37:34;100391.44;;;-3.63;57.46
43621;BME280;29213;50.770;7.298;2023-12-04T07:39:59;100414.56;;;-3.39;57.74
43621;BME280;29213;50.770;7.298;2023-12-04T07:42:25;100315.94;;;-3.98;57.64
43621;BME280;29213;50.770;7.298;2023-12-04T07:44:50;100357.06;;;-3.88;56.94
43621;BME280;29213;50.770;7.298;2023-12-04T07:47:16;100423.38;;;-3.42;57.75
43621;BME280;29213;50.770;7.298;2023-12-04T07:49:42;100384.84;;;-3.70;57.42
43621;BME280;29213;50.770;7.298;2023-12-04T07:52:08;100435.78;;;-3.47;57.72
43621;BME280;29213;50.770;7.298;2023-12-04T07:54:33;100423.88;;;-3.53;57.79
43621;BME280;29213;50.770;7.298;2023-12-04T07:56:59;100388.72;;;-3.62;57.86
43621;BME280;29213;50.770;7.298;2023-12-04T07:59:25;100315.47;;;-4.24;57.54
43621;BME280;29213;50.770;7.298;2023-12-04T08:01:51;100434.31;;;-3.35;57.90
43621;BME280;29213;50.770;7.298;2023-12-04T08:06:54;100305.00;;;-4.05;57.27
43621;BME280;29213;50.770;7.298;2023-12-04T08:09:19;100369.81;;;-3.65;57.36
43621;BME280;29213;50.770;7.298;2023-12-04T08:11:45;100255.41;;;-4.20;56.76
43621;BME280;29213;50.770;7.298;2023-12-04T08:14:10;100412.16;;;-3.09;56.52
43621;BME280;29213;50.770;7.298;2023-12-04T08:16:36;100283.19;;;-3.85;55.88
43621;BME280;29213;50.770;7.298;2023-12-04T08:19:01;100412.09;;;-2.91;56.18
43621;BME280;29213;50.770;7.298;2023-12-04T08:21:26;100332.75;;;-3.53;55.74
43621;BME280;29213;50.770;7.298;2023-12-04T08:23:52;100318.38;;;-3.60;55.74
43621;BME280;29213;50.770;7.298;2023-12-04T08:26:22;100366.66;;;-3.19;56.02
43621;BME280;29213;50.770;7.298;2023-12-04T08:28:47;100312.69;;;-3.51;56.36
43621;BME280;29213;50.770;7.298;2023-12-04T08:31:13;100303.22;;;-3.52;56.49
43621;BME280;29213;50.770;7.298;2023-12-04T08:33:38;100396.72;;;-2.96;55.54
43621;BME280;29213;50.770;7.298;2023-12-04T08:36:04;100362.03;;;-3.14;56.28
43621;BME280;29213;50.770;7.298;2023-12-04T08:38:30;100339.47;;;-3.31;55.61
43621;BME280;29213;50.770;7.298;2023-12-04T08:40:55;100261.97;;;-3.77;56.02
43621;BME280;29213;50.770;7.298;2023-12-04T08:43:20;100326.38;;;-3.29;55.71
43621;BME280;29213;50.770;7.298;2023-12-04T08:45:46;100280.63;;;-3.69;55.80
43621;BME280;29213;50.770;7.298;2023-12-04T08:48:11;100393.88;;;-2.91;55.57
43621;BME280;29213;50.770;7.298;2023-12-04T08:50:37;100274.19;;;-3.62;55.19
43621;BME280;29213;50.770;7.298;2023-12-04T08:53:03;100330.09;;;-3.17;55.13
43621;BME280;29213;50.770;7.298;2023-12-04T08:55:29;100315.47;;;-3.20;54.72
43621;BME280;29213;50.770;7.298;2023-12-04T08:57:55;100310.72;;;-3.29;54.55
43621;BME280;29213;50.770;7.298;2023-12-04T09:00:20;100403.56;;;-2.61;55.06
43621;BME280;29213;50.770;7.298;2023-12-04T09:02:47;100411.66;;;-2.65;54.96
43621;BME280;29213;50.770;7.298;2023-12-04T09:05:13;100296.56;;;-3.24;55.04
43621;BME280;29213;50.770;7.298;2023-12-04T09:07:38;100306.25;;;-3.10;55.09
43621;BME280;29213;50.770;7.298;2023-12-04T09:10:04;100373.72;;;-2.71;55.07
43621;BME280;29213;50.770;7.298;2023-12-04T09:12:29;100318.69;;;-3.15;55.45
43621;BME280;29213;50.770;7.298;2023-12-04T09:14:54;100290.50;;;-3.24;55.63
43621;BME280;29213;50.770;7.298;2023-12-04T09:17:20;100388.78;;;-2.60;55.38
43621;BME280;29213;50.770;7.298;2023-12-04T09:19:46;100304.53;;;-3.11;55.12
43621;BME280;29213;50.770;7.298;2023-12-04T09:22:11;100373.53;;;-2.68;55.49
43621;BME280;29213;50.770;7.298;2023-12-04T09:24:36;100339.88;;;-2.89;55.43
43621;BME280;29213;50.770;7.298;2023-12-04T09:27:02;100260.97;;;-3.41;55.52
43621;BME280;29213;50.770;7.298;2023-12-04T09:29:27;100224.72;;;-3.62;54.71
43621;BME280;29213;50.770;7.298;2023-12-04T09:31:53;100224.50;;;-3.57;55.07
43621;BME280;29213;50.770;7.298;2023-12-04T09:34:19;100319.34;;;-2.95;55.41
43621;BME280;29213;50.770;7.298;2023-12-04T09:36:46;100344.00;;;-2.69;55.90
43621;BME280;29213;50.770;7.298;2023-12-04T09:39:13;100271.44;;;-3.09;54.74
43621;BME280;29213;50.770;7.298;2023-12-04T09:41:40;100274.28;;;-3.13;55.04
43621;BME280;29213;50.770;7.298;2023-12-04T09:44:07;100329.31;;;-2.54;54.84
43621;BME280;29213;50.770;7.298;2023-12-04T09:46:34;100320.72;;;-2.56;54.68
43621;BME280;29213;50.770;7.298;2023-12-04T09:48:59;100337.28;;;-2.41;54.38
43621;BME280;29213;50.770;7.298;2023-12-04T09:51:27;100188.50;;;-3.32;54.39
43621;BME280;29213;50.770;7.298;2023-12-04T09:53:52;100138.16;;;-3.49;54.08
43621;BME280;29213;50.770;7.298;2023-12-04T09:56:19;100258.66;;;-2.81;54.54
43621;BME280;29213;50.770;7.298;2023-12-04T09:58:46;100284.19;;;-2.56;54.69
43621;BME280;29213;50.770;7.298;2023-12-04T10:01:16;100227.22;;;-2.78;54.11
43621;BME280;29213;50.770;7.298;2023-12-04T10:03:42;100192.25;;;-2.90;53.94
43621;BME280;29213;50.770;7.298;2023-12-04T10:06:08;100284.78;;;-2.34;53.76
43621;BME280;29213;50.770;7.298;2023-12-04T10:08:34;100267.38;;;-2.50;54.21
43621;BME280;29213;50.770;7.298;2023-12-04T10:10:59;100186.03;;;-2.87;54.46
43621;BME280;29213;50.770;7.298;2023-12-04T10:13:27;100276.41;;;-2.25;54.12
43621;BME280;29213;50.770;7.298;2023-12-04T10:15:52;100294.81;;;-2.12;54.39
43621;BME280;29213;50.770;7.298;2023-12-04T10:18:25;100237.84;;;-2.50;53.97
43621;BME280;29213;50.770;7.298;2023-12-04T10:20:52;100283.94;;;-2.04;53.89
43621;BME280;29213;50.770;7.298;2023-12-04T10:23:18;100246.25;;;-2.15;53.89
43621;BME280;29213;50.770;7.298;2023-12-04T10:25:44;100194.56;;;-2.38;54.41
43621;BME280;29213;50.770;7.298;2023-12-04T10:28:10;100173.41;;;-2.48;54.16
43621;BME280;29213;50.770;7.298;2023-12-04T10:30:36;100173.41;;;-2.48;54.13
43621;BME280;29213;50.770;7.298;2023-12-04T10:33:03;100264.81;;;-2.05;54.82
43621;BME280;29213;50.770;7.298;2023-12-04T10:35:32;100249.56;;;-1.96;54.92
43621;BME280;29213;50.770;7.298;2023-12-04T10:37:58;100253.31;;;-1.86;55.31
43621;BME280;29213;50.770;7.298;2023-12-04T10:40:30;100168.03;;;-2.31;55.02
43621;BME280;29213;50.770;7.298;2023-12-04T10:43:32;100251.06;;;-1.78;55.56
43621;BME280;29213;50.770;7.298;2023-12-04T10:45:58;100100.00;;;-2.57;55.66
43621;BME280;29213;50.770;7.298;2023-12-04T10:48:23;100212.66;;;-1.90;55.87
43621;BME280;29213;50.770;7.298;2023-12-04T10:50:49;100236.97;;;-1.75;55.99
43621;BME280;29213;50.770;7.298;2023-12-04T10:53:15;100110.66;;;-2.31;56.69
43621;BME280;29213;50.770;7.298;2023-12-04T10:55:41;100219.84;;;-1.50;56.33
43621;BME280;29213;50.770;7.298;2023-12-04T10:58:11;100219.00;;;-1.51;56.80
43621;BME280;29213;50.770;7.298;2023-12-04T11:00:45;100212.06;;;-1.37;56.77
43621;BME280;29213;50.770;7.298;2023-12-04T11:03:21;100216.47;;;-1.38;56.57
43621;BME280;29213;50.770;7.298;2023-12-04T11:05:55;100151.94;;;-1.79;56.04
43621;BME280;29213;50.770;7.298;2023-12-04T11:08:23;100121.00;;;-2.00;56.87
43621;BME280;29213;50.770;7.298;2023-12-04T11:11:04;100189.22;;;-1.48;56.53
43621;BME280;29213;50.770;7.298;2023-12-04T11:13:35;100092.00;;;-2.10;56.72
43621;BME280;29213;50.770;7.298;2023-12-04T11:16:23;100182.06;;;-1.59;56.97
43621;BME280;29213;50.770;7.298;2023-12-04T11:19:01;100111.22;;;-2.11;57.68
43621;BME280;29213;50.770;7.298;2023-12-04T11:21:31;100012.44;;;-2.75;58.23
43621;BME280;29213;50.770;7.298;2023-12-04T11:23:57;100106.66;;;-2.22;60.38
43621;BME280;29213;50.770;7.298;2023-12-04T11:26:24;100093.50;;;-2.35;58.65
43621;BME280;29213;50.770;7.298;2023-12-04T11:28:51;100093.16;;;-2.14;58.56
43621;BME280;29213;50.770;7.298;2023-12-04T11:31:17;100146.34;;;-1.73;58.17
43621;BME280;29213;50.770;7.298;2023-12-04T11:33:42;100084.00;;;-2.07;58.26
43621;BME280;29213;50.770;7.298;2023-12-04T11:36:12;100154.25;;;-1.60;58.58
43621;BME280;29213;50.770;7.298;2023-12-04T11:38:42;100136.00;;;-1.75;59.27
43621;BME280;29213;50.770;7.298;2023-12-04T11:41:22;100101.31;;;-1.77;59.36
43621;BME280;29213;50.770;7.298;2023-12-04T11:43:48;100081.75;;;-1.84;59.49
43621;BME280;29213;50.770;7.298;2023-12-04T11:46:19;100048.47;;;-1.95;59.33
43621;BME280;29213;50.770;7.298;2023-12-04T11:48:51;100139.38;;;-1.30;59.40
43621;BME280;29213;50.770;7.298;2023-12-04T11:54:15;100127.38;;;-1.48;60.28
43621;BME280;29213;50.770;7.298;2023-12-04T11:56:47;99968.84;;;-2.44;62.56
43621;BME280;29213;50.770;7.298;2023-12-04T11:59:21;100057.22;;;-1.96;61.31
43621;BME280;29213;50.770;7.298;2023-12-04T12:01:50;100058.16;;;-1.82;61.42
43621;BME280;29213;50.770;7.298;2023-12-04T12:04:17;100043.25;;;-1.95;60.96
43621;BME280;29213;50.770;7.298;2023-12-04T12:06:44;100095.59;;;-1.54;61.30
43621;BME280;29213;50.770;7.298;2023-12-04T12:09:09;100072.88;;;-1.67;61.10
43621;BME280;29213;50.770;7.298;2023-12-04T12:11:35;100059.19;;;-1.85;61.56
43621;BME280;29213;50.770;7.298;2023-12-04T12:14:01;99964.56;;;-2.45;61.60
43621;BME280;29213;50.770;7.298;2023-12-04T12:16:26;99995.88;;;-2.31;61.58
43621;BME280;29213;50.770;7.298;2023-12-04T12:18:52;100086.16;;;-1.57;61.57
43621;BME280;29213;50.770;7.298;2023-12-04T12:21:18;100006.06;;;-1.98;61.11
43621;BME280;29213;50.770;7.298;2023-12-04T12:23:44;100010.38;;;-2.12;61.80
43621;BME280;29213;50.770;7.298;2023-12-04T12:26:09;100008.88;;;-2.16;61.09
43621;BME280;29213;50.770;7.298;2023-12-04T12:28:35;100062.81;;;-1.88;62.24
43621;BME280;29213;50.770;7.298;2023-12-04T12:31:02;99929.28;;;-2.65;61.41
43621;BME280;29213;50.770;7.298;2023-12-04T12:33:28;100063.69;;;-2.02;62.14
43621;BME280;29213;50.770;7.298;2023-12-04T12:35:55;99975.19;;;-2.63;62.90
43621;BME280;29213;50.770;7.298;2023-12-04T12:38:20;100023.81;;;-2.33;62.72
43621;BME280;29213;50.770;7.298;2023-12-04T12:40:46;99976.31;;;-2.53;62.44
43621;BME280;29213;50.770;7.298;2023-12-04T12:43:11;99957.41;;;-2.56;62.13
43621;BME280;29213;50.770;7.298;2023-12-04T12:45:44;100060.16;;;-2.15;62.21
43621;BME280;29213;50.770;7.298;2023-12-04T12:48:13;100002.84;;;-2.75;64.90
43621;BME280;29213;50.770;7.298;2023-12-04T12:50:39;99943.25;;;-3.10;63.94
43621;BME280;29213;50.770;7.298;2023-12-04T12:53:04;100048.69;;;-2.42;64.94
43621;BME280;29213;50.770;7.298;2023-12-04T12:55:30;99979.75;;;-2.96;65.11
43621;BME280;29213;50.770;7.298;2023-12-04T12:57:56;99977.63;;;-3.34;65.89
43621;BME280;29213;50.770;7.298;2023-12-04T13:00:22;99966.09;;;-3.30;66.68
43621;BME280;29213;50.770;7.298;2023-12-04T13:02:48;100034.47;;;-2.81;66.60
43621;BME280;29213;50.770;7.298;2023-12-04T13:05:13;99952.19;;;-3.45;66.55